Time;durP1;ratioP1;P1;durP2;ratioP2;P2;SDS_P1;SDS_P2;PMS_P1;PMS_P2;Temp;Humidity;BMP_temperature;BMP_pressure;BME280_temperature;BME280_humidity;BME280_pressure;Samples;Min_cycle;Max_cycle;Signal;HPM_P1;HPM_P2
2022/08/31 00:05:21;;;;;;;3.17;0.90;;;;;;;16.26;66.76;101489.56;5027840;28;20212;-80
2022/08/31 00:07:47;;;;;;;1.10;0.90;;;;;;;16.26;66.56;101496.78;5031880;28;20787;-81
2022/08/31 00:10:16;;;;;;;3.17;1.10;;;;;;;16.26;66.73;101497.63;5021313;28;20209;-80
2022/08/31 00:12:45;;;;;;;3.10;0.90;;;;;;;16.25;66.71;101500.44;5031048;28;20206;-80
2022/08/31 00:15:19;;;;;;;1.63;0.80;;;;;;;16.25;66.73;101493.22;5022938;28;20818;-81
2022/08/31 00:17:47;;;;;;;1.83;0.87;;;;;;;16.25;66.75;101497.75;5026478;28;20229;-80
2022/08/31 00:20:17;;;;;;;0.80;0.80;;;;;;;16.24;66.74;101488.81;5023152;28;20211;-81
2022/08/31 00:22:43;;;;;;;1.53;0.73;;;;;;;16.24;66.62;101490.63;5020645;28;20229;-81
2022/08/31 00:25:11;;;;;;;1.63;0.90;;;;;;;16.22;66.77;101488.06;5027919;28;20201;-81
2022/08/31 00:27:37;;;;;;;1.67;1.10;;;;;;;16.20;66.72;101486.47;5016854;28;20239;-81
2022/08/31 00:30:06;;;;;;;2.70;0.90;;;;;;;16.17;66.84;101487.53;5034180;28;20212;-81
2022/08/31 00:32:33;;;;;;;1.20;0.90;;;;;;;16.14;66.94;101482.38;5031596;28;20812;-81
2022/08/31 00:35:01;;;;;;;1.30;0.80;;;;;;;16.13;67.27;101479.81;5027210;28;20215;-82
2022/08/31 00:37:28;;;;;;;1.63;1.00;;;;;;;16.12;67.32;101480.81;5032072;28;20221;-82
2022/08/31 00:39:54;;;;;;;1.30;0.80;;;;;;;16.11;67.31;101481.78;5027656;28;20212;-81
2022/08/31 00:42:22;;;;;;;1.63;0.90;;;;;;;16.09;67.32;101473.81;5031358;28;20650;-81
2022/08/31 00:44:48;;;;;;;2.13;0.90;;;;;;;16.07;67.49;101481.13;5021162;28;20209;-81
2022/08/31 00:47:15;;;;;;;1.43;0.83;;;;;;;16.06;67.24;101476.72;5037756;28;20221;-82
2022/08/31 00:49:48;;;;;;;1.00;0.90;;;;;;;16.03;67.55;101468.88;5034988;28;20204;-81
2022/08/31 00:52:20;;;;;;;0.70;0.70;;;;;;;16.03;67.51;101479.63;5025077;28;20236;-81
2022/08/31 00:54:52;;;;;;;1.90;0.93;;;;;;;16.00;67.61;101477.16;5031145;28;20310;-81
2022/08/31 00:57:19;;;;;;;1.77;0.90;;;;;;;15.96;67.57;101475.66;5033078;28;20310;-81
2022/08/31 00:59:48;;;;;;;2.33;1.00;;;;;;;15.93;67.55;101479.47;5031052;28;20200;-81
2022/08/31 01:02:15;;;;;;;1.63;0.80;;;;;;;15.89;67.88;101480.66;5029659;28;20678;-80
2022/08/31 01:04:42;;;;;;;2.23;1.00;;;;;;;15.87;67.79;101493.31;5027675;28;20585;-80
2022/08/31 01:07:09;;;;;;;1.40;0.93;;;;;;;15.83;67.67;101489.13;5033869;28;20752;-80
2022/08/31 01:09:40;;;;;;;2.00;0.90;;;;;;;15.79;67.65;101484.94;5034227;28;20794;-80
2022/08/31 01:12:09;;;;;;;1.73;1.00;;;;;;;15.76;67.99;101487.88;5028375;28;20195;-81
2022/08/31 01:14:36;;;;;;;0.80;0.80;;;;;;;15.74;67.86;101486.25;5034175;28;20203;-81
2022/08/31 01:17:03;;;;;;;1.30;0.80;;;;;;;15.71;68.04;101486.47;5031526;28;20226;-81
2022/08/31 01:19:35;;;;;;;2.57;1.33;;;;;;;15.68;67.81;101479.50;5029645;28;20204;-81
2022/08/31 01:22:08;;;;;;;2.43;1.20;;;;;;;15.66;68.23;101486.81;5026608;28;20198;-81
2022/08/31 01:24:39;;;;;;;2.60;0.97;;;;;;;15.62;68.00;101482.59;5022447;28;20215;-81
2022/08/31 01:27:06;;;;;;;0.90;0.90;;;;;;;15.60;67.92;101484.53;5029994;28;20238;-81
2022/08/31 01:29:34;;;;;;;1.83;0.93;;;;;;;15.56;68.06;101491.13;5032550;28;20227;-81
2022/08/31 01:32:01;;;;;;;1.87;0.80;;;;;;;15.53;68.34;101499.34;5035065;28;20205;-81
2022/08/31 01:34:28;;;;;;;1.63;0.93;;;;;;;15.50;68.43;101503.09;5030475;28;20876;-80
2022/08/31 01:36:55;;;;;;;1.33;1.10;;;;;;;15.46;68.21;101493.53;5029018;28;20250;-80
2022/08/31 01:39:22;;;;;;;1.43;1.10;;;;;;;15.44;68.39;101494.63;5030691;28;20226;-81
2022/08/31 01:41:50;;;;;;;2.07;0.90;;;;;;;15.41;68.57;101492.13;5026034;28;20204;-80
2022/08/31 01:44:19;;;;;;;4.30;1.00;;;;;;;15.37;68.74;101496.88;5027673;28;20220;-80
2022/08/31 01:46:47;;;;;;;2.53;0.90;;;;;;;15.34;68.74;101494.41;5023017;28;20213;-81
2022/08/31 01:49:15;;;;;;;1.13;0.80;;;;;;;15.33;68.67;101494.53;5032273;28;20200;-81
2022/08/31 01:51:42;;;;;;;0.80;0.80;;;;;;;15.27;69.07;101491.28;5026016;28;20612;-80
2022/08/31 01:54:09;;;;;;;1.80;0.90;;;;;;;15.24;69.07;101493.31;5025565;28;20683;-81
2022/08/31 01:56:38;;;;;;;1.53;0.80;;;;;;;15.22;69.33;101493.47;5019291;28;20208;-81
2022/08/31 01:59:09;;;;;;;2.47;0.83;;;;;;;15.18;69.30;101497.31;5036658;28;20202;-81
2022/08/31 02:01:39;;;;;;;1.10;0.87;;;;;;;15.14;69.50;101487.75;5031676;28;20194;-81
2022/08/31 02:04:08;;;;;;;1.07;0.90;;;;;;;15.12;69.75;101489.66;5022256;28;20215;-81
2022/08/31 02:06:35;;;;;;;1.57;0.80;;;;;;;15.09;69.75;101492.56;5025255;28;20292;-80
2022/08/31 02:09:05;;;;;;;1.57;0.90;;;;;;;15.06;69.90;101494.59;5022174;28;20222;-80
2022/08/31 02:11:31;;;;;;;1.30;1.00;;;;;;;15.02;70.22;101487.75;5026992;28;20218;-80
2022/08/31 02:13:58;;;;;;;1.33;0.80;;;;;;;14.99;70.23;101494.16;5029421;28;20195;-80
2022/08/31 02:16:26;;;;;;;2.57;1.00;;;;;;;14.94;70.51;101498.97;5031402;28;20210;-80
2022/08/31 02:18:53;;;;;;;1.87;0.80;;;;;;;14.91;70.59;101505.41;5022555;28;20230;-80
2022/08/31 02:21:19;;;;;;;0.93;0.83;;;;;;;14.88;70.60;101510.97;5026049;28;20217;-80
2022/08/31 02:23:46;;;;;;;2.27;0.80;;;;;;;14.87;70.82;101508.41;5021942;28;20226;-81
2022/08/31 02:26:13;;;;;;;0.80;0.80;;;;;;;14.85;71.18;101505.84;5027843;28;20202;-81
2022/08/31 02:28:39;;;;;;;1.23;0.97;;;;;;;14.84;71.57;101509.50;5021381;28;20281;-80
2022/08/31 02:31:06;;;;;;;0.60;0.60;;;;;;;14.85;71.39;101502.31;5025825;28;20199;-80
2022/08/31 02:33:34;;;;;;;1.30;0.80;;;;;;;14.84;71.49;101497.91;5024586;28;20214;-80
2022/08/31 02:36:01;;;;;;;1.27;0.87;;;;;;;14.82;71.71;101498.00;5030544;28;20325;-80
2022/08/31 02:38:27;;;;;;;1.67;1.17;;;;;;;14.80;71.83;101502.59;5032736;28;20218;-80
2022/08/31 02:40:54;;;;;;;1.10;0.90;;;;;;;14.80;72.06;101499.94;5024922;28;20221;-80
2022/08/31 02:43:20;;;;;;;1.80;0.87;;;;;;;14.79;71.94;101500.03;5032950;28;20574;-80
2022/08/31 02:45:47;;;;;;;1.53;0.80;;;;;;;14.77;71.97;101501.94;5027193;28;20210;-80
2022/08/31 02:48:14;;;;;;;1.30;0.83;;;;;;;14.76;71.78;101503.78;5027787;28;20225;-80
2022/08/31 02:50:44;;;;;;;1.43;1.10;;;;;;;14.76;72.03;101505.59;5025418;28;20203;-80
2022/08/31 02:53:13;;;;;;;1.20;1.00;;;;;;;14.74;72.10;101507.50;5032493;28;20202;-80
2022/08/31 02:55:39;;;;;;;1.00;0.90;;;;;;;14.72;72.04;101504.94;5030552;28;20206;-80
2022/08/31 02:58:06;;;;;;;2.60;1.00;;;;;;;14.71;72.38;101507.72;5031885;28;20227;-80
2022/08/31 03:00:33;;;;;;;1.10;1.00;;;;;;;14.69;72.32;101504.31;5027771;28;20210;-80
2022/08/31 03:03:00;;;;;;;1.60;1.20;;;;;;;14.69;72.17;101504.31;5034582;28;20207;-80
2022/08/31 03:05:26;;;;;;;2.27;1.00;;;;;;;14.68;72.65;101514.16;5027239;28;20209;-80
2022/08/31 03:07:54;;;;;;;2.47;0.90;;;;;;;14.68;72.44;101513.31;5035740;28;20226;-80
2022/08/31 03:10:23;;;;;;;1.00;0.90;;;;;;;14.64;72.82;101504.59;5038580;28;20209;-81
2022/08/31 03:12:52;;;;;;;2.07;0.90;;;;;;;14.64;72.71;101499.25;5040861;28;21395;-81
2022/08/31 03:15:20;;;;;;;1.60;1.03;;;;;;;14.61;72.88;101494.06;5031346;28;20283;-81
2022/08/31 03:17:47;;;;;;;2.50;1.00;;;;;;;14.59;72.92;101482.59;5028422;28;20225;-82
2022/08/31 03:20:15;;;;;;;0.87;0.87;;;;;;;14.58;73.24;101487.09;5032955;28;20673;-80
2022/08/31 03:22:41;;;;;;;1.73;0.70;;;;;;;14.58;73.15;101491.59;5035261;28;20221;-80
2022/08/31 03:25:10;;;;;;;1.27;0.70;;;;;;;14.59;73.45;101487.94;5031916;28;20599;-80
2022/08/31 03:27:37;;;;;;;1.67;0.93;;;;;;;14.59;73.06;101482.59;5029679;28;20230;-81
2022/08/31 03:30:07;;;;;;;1.03;0.90;;;;;;;14.57;73.43;101485.38;5033260;28;20681;-81
2022/08/31 03:32:33;;;;;;;2.63;0.80;;;;;;;14.57;73.88;101484.50;5031885;28;20214;-81
2022/08/31 03:35:01;;;;;;;1.57;1.37;;;;;;;14.55;73.50;101481.94;5034712;28;20213;-81
2022/08/31 03:37:28;;;;;;;3.03;1.63;;;;;;;14.56;74.11;101480.97;5034745;28;20309;-81
2022/08/31 03:39:55;;;;;;;1.60;0.80;;;;;;;14.54;73.97;101480.22;5028176;28;20238;-81
2022/08/31 03:42:23;;;;;;;1.10;0.90;;;;;;;14.54;73.89;101484.72;5032564;28;20695;-81
2022/08/31 03:44:50;;;;;;;1.47;0.80;;;;;;;14.53;73.92;101489.22;5032320;28;20230;-80
2022/08/31 03:47:17;;;;;;;2.90;0.90;;;;;;;14.52;73.92;101482.13;5036005;28;20664;-81
2022/08/31 03:49:44;;;;;;;2.20;1.00;;;;;;;14.51;74.18;101491.13;5033812;28;20207;-80
2022/08/31 03:52:11;;;;;;;1.30;0.83;;;;;;;14.49;73.85;101490.41;5034577;28;20202;-81
2022/08/31 03:54:37;;;;;;;1.10;0.80;;;;;;;14.48;74.13;101486.00;5039323;28;20557;-81
2022/08/31 03:57:04;;;;;;;1.43;0.83;;;;;;;14.46;74.20;101489.75;5026488;28;20233;-81
2022/08/31 03:59:32;;;;;;;0.80;0.70;;;;;;;14.45;74.21;101496.06;5035154;28;20206;-81
2022/08/31 04:01:59;;;;;;;1.27;0.60;;;;;;;14.43;74.18;101504.19;5033919;28;20198;-81
2022/08/31 04:04:25;;;;;;;1.90;0.80;;;;;;;14.41;74.28;101495.41;5035081;28;20230;-81
2022/08/31 04:06:52;;;;;;;3.33;1.20;;;;;;;14.40;74.15;101498.13;5035058;28;20197;-81
2022/08/31 04:09:18;;;;;;;2.57;1.10;;;;;;;14.38;73.83;101503.59;5034544;28;20198;-82
2022/08/31 04:11:45;;;;;;;1.03;0.90;;;;;;;14.34;73.97;101510.09;5031525;28;20202;-81
2022/08/31 04:14:12;;;;;;;1.67;1.00;;;;;;;14.33;74.25;101513.75;5032655;28;20203;-81
2022/08/31 04:16:41;;;;;;;1.63;1.00;;;;;;;14.30;74.06;101511.28;5030569;28;20220;-81
2022/08/31 04:19:10;;;;;;;2.07;0.77;;;;;;;14.28;74.29;101515.88;5030261;28;20213;-81
2022/08/31 04:21:37;;;;;;;1.10;1.00;;;;;;;14.27;74.41;101514.16;5032698;28;20218;-81
2022/08/31 04:24:03;;;;;;;1.80;0.90;;;;;;;14.27;74.76;101524.88;5033599;28;20852;-81
2022/08/31 04:26:33;;;;;;;1.80;0.93;;;;;;;14.24;74.35;101523.25;5034970;28;20206;-82
2022/08/31 04:29:00;;;;;;;1.30;0.90;;;;;;;14.23;74.56;101531.41;5027934;28;20709;-81
2022/08/31 04:31:28;;;;;;;1.30;1.20;;;;;;;14.18;74.44;101529.00;5030480;28;20685;-80
2022/08/31 04:33:57;;;;;;;3.23;1.63;;;;;;;14.18;74.77;101537.03;5033866;28;20242;-80
2022/08/31 04:36:25;;;;;;;2.27;1.00;;;;;;;14.15;74.59;101531.88;5033156;28;20198;-80
2022/08/31 04:38:55;;;;;;;1.40;0.90;;;;;;;14.11;74.51;101538.41;5025644;28;20754;-81
2022/08/31 04:41:25;;;;;;;1.67;1.13;;;;;;;14.06;75.00;101539.66;5029846;28;20217;-81
2022/08/31 04:43:54;;;;;;;1.60;1.20;;;;;;;14.02;75.15;101530.09;5030855;28;20225;-80
2022/08/31 04:46:22;;;;;;;3.13;1.40;;;;;;;13.98;75.24;101528.56;5031433;28;20207;-81
2022/08/31 04:48:49;;;;;;;1.77;1.07;;;;;;;13.94;75.37;101529.72;5028585;28;20236;-81
2022/08/31 04:51:19;;;;;;;1.63;1.20;;;;;;;13.89;75.26;101530.88;5031664;28;20605;-81
2022/08/31 04:53:46;;;;;;;2.60;1.00;;;;;;;13.84;75.70;101532.97;5029467;28;20202;-81
2022/08/31 04:56:15;;;;;;;3.40;1.53;;;;;;;13.82;75.99;101537.56;5029505;28;20205;-81
2022/08/31 04:58:43;;;;;;;1.83;1.23;;;;;;;13.81;76.37;101533.16;5028759;28;20226;-81
2022/08/31 05:01:10;;;;;;;2.23;1.00;;;;;;;13.81;76.42;101535.84;5027806;28;20829;-82
2022/08/31 05:03:37;;;;;;;1.80;1.10;;;;;;;13.83;76.51;101535.75;5031228;28;20633;-83
2022/08/31 05:06:04;;;;;;;2.10;0.90;;;;;;;13.82;76.97;101540.25;5031208;28;20210;-80
2022/08/31 05:08:32;;;;;;;2.10;1.10;;;;;;;13.83;77.19;101544.63;5027403;28;20244;-81
2022/08/31 05:10:58;;;;;;;1.10;1.00;;;;;;;13.84;76.85;101545.50;5027188;28;20733;-81
2022/08/31 05:13:25;;;;;;;1.07;0.80;;;;;;;13.85;77.16;101545.41;5030550;28;20206;-81
2022/08/31 05:15:53;;;;;;;2.37;1.07;;;;;;;13.87;77.56;101553.34;5028386;28;20198;-82
2022/08/31 05:18:20;;;;;;;1.83;1.03;;;;;;;13.88;77.39;101553.25;5020895;28;20231;-80
2022/08/31 05:20:47;;;;;;;2.10;1.23;;;;;;;13.89;77.42;101552.31;5025983;28;20224;-81
2022/08/31 05:23:13;;;;;;;4.60;1.67;;;;;;;13.93;77.20;101557.47;5027242;28;20210;-80
2022/08/31 05:25:43;;;;;;;2.47;1.00;;;;;;;13.95;77.50;101566.28;5029978;28;20226;-80
2022/08/31 05:28:10;;;;;;;3.07;1.00;;;;;;;13.96;77.24;101557.28;5026483;28;20222;-82
2022/08/31 05:30:36;;;;;;;1.73;1.10;;;;;;;13.97;77.28;101559.88;5028029;28;20217;-81
2022/08/31 05:33:03;;;;;;;2.50;1.30;;;;;;;13.99;77.52;101560.59;5027904;28;20629;-81
2022/08/31 05:35:30;;;;;;;3.97;1.40;;;;;;;14.02;77.85;101572.94;5030103;28;20224;-81
2022/08/31 05:37:56;;;;;;;3.33;1.30;;;;;;;14.05;77.75;101567.41;5029140;28;20234;-81
2022/08/31 05:40:23;;;;;;;5.03;1.37;;;;;;;14.07;77.75;101565.47;5029732;28;20214;-82
2022/08/31 05:42:51;;;;;;;5.03;1.30;;;;;;;14.09;77.76;101563.56;5030083;28;20309;-82
2022/08/31 05:45:17;;;;;;;8.57;1.83;;;;;;;14.12;77.88;101571.41;5032039;28;20226;-81
2022/08/31 05:47:44;;;;;;;3.70;1.40;;;;;;;14.14;77.94;101572.19;5028769;28;20238;-82
2022/08/31 05:50:11;;;;;;;2.73;1.23;;;;;;;14.15;78.38;101574.75;5031037;28;20293;-81
2022/08/31 05:52:37;;;;;;;2.03;1.20;;;;;;;14.17;77.80;101577.31;5027356;28;20210;-82
2022/08/31 05:55:04;;;;;;;2.57;1.07;;;;;;;14.20;77.94;101585.16;5030610;28;20569;-82
2022/08/31 05:57:31;;;;;;;2.50;1.00;;;;;;;14.21;78.20;101573.50;5031891;28;20249;-82
2022/08/31 05:59:59;;;;;;;3.27;1.63;;;;;;;14.24;78.38;101578.66;5028247;28;20211;-82
2022/08/31 06:02:26;;;;;;;1.13;0.97;;;;;;;14.25;77.99;101580.38;5029619;28;20214;-81
2022/08/31 06:04:56;;;;;;;1.30;1.03;;;;;;;14.27;78.32;101583.84;5025339;28;20230;-82
2022/08/31 06:07:22;;;;;;;1.87;1.10;;;;;;;14.29;78.15;101581.06;5035803;28;20230;-81
2022/08/31 06:09:49;;;;;;;1.93;0.93;;;;;;;14.30;78.36;101590.81;5030047;28;20202;-82
2022/08/31 06:12:16;;;;;;;2.30;0.90;;;;;;;14.30;77.83;101578.28;5033651;28;20202;-81
2022/08/31 06:14:44;;;;;;;2.70;1.00;;;;;;;14.33;78.30;101586.09;5031927;28;20281;-81
2022/08/31 06:17:12;;;;;;;3.30;1.10;;;;;;;14.34;78.06;101590.50;5031068;28;20231;-81
2022/08/31 06:19:38;;;;;;;1.83;1.10;;;;;;;14.37;78.10;101595.66;5028199;28;20213;-81
2022/08/31 06:22:05;;;;;;;3.50;0.97;;;;;;;14.42;78.13;101598.09;5019931;28;20210;-82
2022/08/31 06:24:31;;;;;;;3.63;1.20;;;;;;;14.47;78.38;101594.19;5027401;28;20231;-82
2022/08/31 06:26:58;;;;;;;4.50;1.40;;;;;;;14.50;78.21;101602.03;5029367;28;20214;-81
2022/08/31 06:29:26;;;;;;;2.70;1.50;;;;;;;14.51;78.23;101601.03;5029300;28;20792;-82
2022/08/31 06:31:52;;;;;;;3.53;1.10;;;;;;;14.54;78.02;101590.13;5027990;28;20202;-82
2022/08/31 06:34:22;;;;;;;2.13;1.00;;;;;;;14.56;77.82;101606.97;5032162;28;20764;-81
2022/08/31 06:36:49;;;;;;;1.57;0.93;;;;;;;14.58;77.69;101607.72;5030233;28;20583;-81
2022/08/31 06:39:15;;;;;;;2.00;0.90;;;;;;;14.60;77.78;101613.00;5035670;28;20207;-81
2022/08/31 06:41:42;;;;;;;1.80;1.20;;;;;;;14.65;77.97;101612.69;5027658;28;20218;-81
2022/08/31 06:44:11;;;;;;;3.13;1.30;;;;;;;14.70;77.90;101616.78;5023171;28;20909;-82
2022/08/31 06:46:39;;;;;;;1.87;0.90;;;;;;;14.75;77.83;101613.81;5024625;28;20215;-81
2022/08/31 06:49:07;;;;;;;0.80;0.80;;;;;;;14.78;78.17;101617.16;5024035;28;20779;-81
2022/08/31 06:51:36;;;;;;;1.63;1.00;;;;;;;14.82;77.44;101612.47;5022980;28;20677;-82
2022/08/31 06:54:05;;;;;;;1.70;1.20;;;;;;;14.84;77.41;101603.34;5024287;28;20210;-81
2022/08/31 06:56:33;;;;;;;1.90;1.03;;;;;;;14.87;77.17;101613.00;5024544;28;20299;-82
2022/08/31 06:59:00;;;;;;;2.90;1.30;;;;;;;14.90;77.08;101605.63;5034714;28;20231;-82
2022/08/31 07:01:29;;;;;;;3.13;1.37;;;;;;;14.94;76.80;101612.50;5023916;28;20572;-81
2022/08/31 07:03:57;;;;;;;3.47;1.17;;;;;;;14.98;76.79;101605.13;5027716;28;20212;-82
2022/08/31 07:06:26;;;;;;;2.13;1.10;;;;;;;15.01;76.62;101610.28;5033570;28;20326;-81
2022/08/31 07:08:57;;;;;;;3.43;1.10;;;;;;;15.05;76.40;101606.41;5026037;28;20235;-82
2022/08/31 07:11:26;;;;;;;2.90;0.93;;;;;;;15.09;76.23;101613.28;5029159;28;20216;-81
2022/08/31 07:13:54;;;;;;;2.77;0.83;;;;;;;15.14;76.42;101619.22;5025137;28;20573;-81
2022/08/31 07:16:23;;;;;;;2.03;1.00;;;;;;;15.19;76.04;101611.72;5034428;28;20204;-81
2022/08/31 07:18:52;;;;;;;2.00;1.50;;;;;;;15.25;75.94;101621.16;5023451;28;20238;-81
2022/08/31 07:21:41;;;;;;;4.67;1.10;;;;;;;15.33;75.68;101616.16;5025180;28;20292;-81
2022/08/31 07:24:09;;;;;;;1.83;1.13;;;;;;;15.40;75.82;101620.16;5026617;28;20206;-81
2022/08/31 07:26:41;;;;;;;1.73;1.30;;;;;;;15.51;75.78;101616.72;5026636;28;20233;-81
2022/08/31 07:29:10;;;;;;;2.77;1.30;;;;;;;15.64;75.39;101617.63;5024781;28;20267;-81
2022/08/31 07:31:43;;;;;;;1.50;0.97;;;;;;;15.77;74.99;101621.16;5026360;28;20261;-81
2022/08/31 07:34:11;;;;;;;3.10;1.00;;;;;;;15.91;74.75;101617.53;5027476;28;20726;-82
2022/08/31 07:42:08;;;;;;;3.30;1.00;;;;;;;16.03;74.13;101618.50;5024255;28;20213;-82
2022/08/31 07:42:12;;;;;;;2.77;1.00;;;;;;;16.32;73.11;101617.25;5025590;28;20216;-80
2022/08/31 07:44:41;;;;;;;3.10;1.20;;;;;;;16.43;72.71;101617.38;5026738;28;20241;-81
2022/08/31 07:47:11;;;;;;;3.70;1.57;;;;;;;16.55;72.04;101621.84;5021416;28;20226;-80
2022/08/31 07:49:39;;;;;;;2.80;1.17;;;;;;;16.66;71.23;101619.25;5028971;28;20240;-81
2022/08/31 07:52:07;;;;;;;4.17;1.30;;;;;;;16.81;70.79;101617.28;5026548;28;20240;-81
2022/08/31 07:54:35;;;;;;;3.30;1.40;;;;;;;16.93;70.05;101616.34;5022829;28;20242;-81
2022/08/31 07:57:03;;;;;;;0.90;0.80;;;;;;;17.05;69.85;101624.47;5032578;28;20230;-81
2022/08/31 07:59:31;;;;;;;2.50;1.20;;;;;;;17.16;69.27;101620.03;5023712;28;20649;-81
2022/08/31 08:02:00;;;;;;;1.40;1.10;;;;;;;17.28;68.63;101619.09;5023254;28;20208;-81
2022/08/31 08:04:27;;;;;;;1.63;1.00;;;;;;;17.40;68.46;101622.66;5016231;28;20199;-81
2022/08/31 08:06:56;;;;;;;2.57;1.00;;;;;;;17.47;67.36;101618.53;5024645;28;20690;-81
2022/08/31 08:09:23;;;;;;;4.10;1.70;;;;;;;17.53;66.70;101623.47;5022455;28;20558;-82
2022/08/31 08:11:54;;;;;;;1.63;0.90;;;;;;;17.66;66.99;101626.94;5029730;28;20286;-81
2022/08/31 08:14:20;;;;;;;3.33;1.00;;;;;;;17.80;66.69;101633.09;5028081;28;20793;-82
2022/08/31 08:16:47;;;;;;;2.57;1.07;;;;;;;17.94;66.43;101633.72;5033155;28;20219;-82
2022/08/31 08:19:14;;;;;;;1.50;0.90;;;;;;;18.10;66.39;101635.19;5019536;28;20219;-82
2022/08/31 08:21:42;;;;;;;3.43;1.10;;;;;;;18.26;65.66;101625.78;5026906;28;20212;-82
2022/08/31 08:24:09;;;;;;;2.13;1.00;;;;;;;18.38;64.67;101629.34;5022668;28;20218;-81
2022/08/31 08:26:36;;;;;;;1.50;0.90;;;;;;;18.51;63.88;101630.06;5019796;28;20278;-82
2022/08/31 08:29:06;;;;;;;2.50;0.90;;;;;;;18.64;63.08;101627.22;5027157;28;20233;-81
2022/08/31 08:31:33;;;;;;;2.53;1.20;;;;;;;18.76;62.93;101638.88;5024515;28;20213;-81
2022/08/31 08:33:59;;;;;;;3.83;0.90;;;;;;;18.89;61.82;101628.78;5029347;28;20222;-82
2022/08/31 08:36:26;;;;;;;3.13;0.80;;;;;;;19.00;61.93;101632.28;5032028;28;20573;-82
2022/08/31 08:38:56;;;;;;;1.33;0.73;;;;;;;19.14;61.30;101639.28;5019427;28;20760;-82
2022/08/31 08:41:25;;;;;;;3.83;0.90;;;;;;;19.25;60.58;101635.66;5020333;28;20258;-82
2022/08/31 08:43:54;;;;;;;1.67;0.90;;;;;;;19.36;59.54;101639.16;5026048;28;20573;-81
2022/08/31 08:46:29;;;;;;;3.30;1.23;;;;;;;19.45;59.27;101631.28;5020465;28;20231;-81
2022/08/31 08:49:00;;;;;;;3.17;0.70;;;;;;;19.55;58.50;101635.78;5028660;28;20243;-81
2022/08/31 08:51:38;;;;;;;1.60;1.00;;;;;;;19.64;58.90;101629.59;5023379;28;20204;-82
2022/08/31 08:54:10;;;;;;;1.73;0.97;;;;;;;19.77;58.73;101634.78;5030928;28;20209;-82
2022/08/31 08:56:40;;;;;;;3.23;0.90;;;;;;;19.88;58.09;101623.06;5030092;28;20204;-82
2022/08/31 08:59:08;;;;;;;3.90;1.20;;;;;;;19.97;57.55;101624.94;5025702;28;20204;-81
2022/08/31 09:01:36;;;;;;;1.63;0.90;;;;;;;20.05;57.44;101625.16;5020211;28;20293;-81
2022/08/31 09:04:11;;;;;;;1.40;1.08;;;;;;;20.20;57.52;101628.34;5021635;28;20207;-81
2022/08/31 09:06:53;;;;;;;3.77;1.10;;;;;;;20.35;56.91;101617.03;5020451;28;20241;-81
2022/08/31 09:09:33;;;;;;;1.35;0.80;;;;;;;20.54;56.24;101626.22;5027914;28;20205;-81
2022/08/31 09:12:19;;;;;;;1.83;0.80;;;;;;;20.60;54.21;101623.81;5023037;28;20224;-81
2022/08/31 09:15:03;;;;;;;1.33;1.00;;;;;;;20.65;53.67;101628.81;5022217;28;20206;-80
2022/08/31 09:17:41;;;;;;;2.50;0.82;;;;;;;20.71;53.25;101629.13;5029415;28;20230;-81
2022/08/31 09:20:11;;;;;;;1.55;0.90;;;;;;;20.73;52.52;101632.56;5029633;28;20786;-80
2022/08/31 09:22:45;;;;;;;5.68;1.35;;;;;;;20.74;52.60;101628.84;5019422;28;20206;-81
2022/08/31 09:25:13;;;;;;;2.33;0.73;;;;;;;20.75;52.16;101627.00;5028884;28;20281;-81
2022/08/31 09:27:45;;;;;;;2.65;0.80;;;;;;;20.77;52.19;101625.00;5019758;28;20237;-81
2022/08/31 09:30:17;;;;;;;1.98;0.80;;;;;;;20.80;52.58;101620.16;5030255;28;20213;-81
2022/08/31 09:32:56;;;;;;;3.88;1.25;;;;;;;20.86;52.66;101616.03;5013990;28;20238;-81
2022/08/31 09:35:28;;;;;;;1.75;0.90;;;;;;;20.94;53.07;101620.75;5025856;28;20224;-81
2022/08/31 09:38:00;;;;;;;3.28;1.05;;;;;;;21.06;52.80;101630.47;5027792;28;20288;-81
2022/08/31 09:40:37;;;;;;;3.00;1.00;;;;;;;21.19;52.86;101620.19;5016477;28;20226;-82
2022/08/31 09:43:07;;;;;;;3.25;0.98;;;;;;;21.27;52.10;101616.81;5019208;28;20198;-81
2022/08/31 09:45:35;;;;;;;1.58;0.70;;;;;;;21.41;51.84;101610.97;5028813;28;20584;-81
2022/08/31 09:48:05;;;;;;;2.58;1.05;;;;;;;21.54;51.34;101616.06;5029542;28;20222;-82
2022/08/31 09:50:37;;;;;;;1.17;0.50;;;;;;;21.64;49.97;101611.50;5029375;28;20209;-81
2022/08/31 09:56:12;;;;;;;1.98;0.65;;;;;;;21.71;49.39;101615.31;5025544;28;20205;-82
2022/08/31 09:58:41;;;;;;;1.60;0.70;;;;;;;21.80;49.91;101614.47;5024778;28;20233;-82
2022/08/31 10:01:14;;;;;;;1.55;1.10;;;;;;;21.93;49.12;101616.84;5017885;28;20256;-82
2022/08/31 10:03:46;;;;;;;1.60;0.60;;;;;;;22.04;48.14;101612.13;5027520;28;20206;-81
2022/08/31 10:06:29;;;;;;;1.98;0.70;;;;;;;22.13;47.07;101624.81;5019506;28;20233;-81
2022/08/31 10:09:03;;;;;;;1.75;0.70;;;;;;;22.21;46.54;101605.09;5021235;28;20232;-82
2022/08/31 10:11:33;;;;;;;2.17;0.77;;;;;;;22.23;45.72;101611.19;5019795;28;20202;-81
2022/08/31 10:14:07;;;;;;;1.35;0.60;;;;;;;22.29;46.06;101607.03;5025987;28;20205;-81
2022/08/31 10:16:37;;;;;;;0.95;0.63;;;;;;;22.39;46.39;101600.53;5027169;28;20635;-81
2022/08/31 10:19:09;;;;;;;1.35;0.70;;;;;;;22.47;45.72;101610.66;5023512;28;20226;-81
2022/08/31 10:21:43;;;;;;;2.10;0.95;;;;;;;22.49;46.07;101603.22;5025532;28;20221;-81
2022/08/31 10:24:20;;;;;;;2.10;0.80;;;;;;;22.52;45.98;101609.22;5026977;28;20201;-81
2022/08/31 10:26:52;;;;;;;0.75;0.60;;;;;;;22.57;46.05;101602.47;5026322;28;20268;-81
2022/08/31 10:29:27;;;;;;;2.55;0.55;;;;;;;22.62;46.05;101592.00;5024841;28;20217;-81
2022/08/31 10:31:57;;;;;;;3.60;0.75;;;;;;;22.68;45.66;101596.84;5026783;28;20290;-81
2022/08/31 10:37:23;;;;;;;0.82;0.63;;;;;;;22.76;44.92;101588.75;5025719;28;20225;-79
2022/08/31 10:39:54;;;;;;;2.10;0.68;;;;;;;22.77;43.45;101596.78;5026718;28;20199;-80
2022/08/31 10:42:25;;;;;;;1.85;0.70;;;;;;;22.79;43.09;101593.91;5015931;28;20205;-82
2022/08/31 10:44:56;;;;;;;0.93;0.65;;;;;;;22.81;42.93;101594.63;5029279;28;20209;-81
2022/08/31 10:47:24;;;;;;;2.20;0.77;;;;;;;22.85;42.61;101588.72;5024429;28;20229;-81
2022/08/31 10:49:54;;;;;;;3.50;1.05;;;;;;;22.92;42.76;101597.13;5025254;28;20260;-81
2022/08/31 10:52:28;;;;;;;0.65;0.60;;;;;;;23.02;42.35;101594.34;5028783;28;20229;-82
2022/08/31 10:55:05;;;;;;;3.28;0.82;;;;;;;23.05;41.59;101594.88;5029947;28;20208;-82
2022/08/31 10:57:40;;;;;;;1.27;0.60;;;;;;;23.03;40.13;101591.47;5026529;28;20221;-83
2022/08/31 11:00:40;;;;;;;1.10;0.57;;;;;;;23.02;40.04;101578.88;5025281;28;20704;-83
2022/08/31 11:03:06;;;;;;;1.23;0.77;;;;;;;23.09;40.16;101576.41;5021710;28;20226;-82
2022/08/31 11:05:40;;;;;;;2.92;0.70;;;;;;;23.15;40.27;101582.06;5033370;28;20210;-82
2022/08/31 11:08:29;;;;;;;0.93;0.73;;;;;;;23.25;40.86;101576.53;5031815;28;20228;-82
2022/08/31 11:10:58;;;;;;;1.98;0.80;;;;;;;23.31;40.43;101580.47;5027924;28;20199;-82
2022/08/31 11:13:46;;;;;;;1.40;0.60;;;;;;;23.34;39.71;101575.59;5029468;28;20657;-82
2022/08/31 11:16:25;;;;;;;1.42;0.60;;;;;;;23.35;39.45;101577.28;5028627;28;20211;-82
2022/08/31 11:19:26;;;;;;;1.15;0.77;;;;;;;23.37;39.97;101571.72;5032999;28;20600;-83
2022/08/31 11:22:15;;;;;;;1.10;1.00;;;;;;;23.37;38.86;101569.00;5020437;28;20214;-83
2022/08/31 11:25:02;;;;;;;1.63;0.70;;;;;;;23.39;38.11;101553.38;5030210;28;20657;-82
2022/08/31 11:27:35;;;;;;;2.22;0.80;;;;;;;23.37;38.67;101561.69;5027692;28;20230;-83
2022/08/31 11:30:06;;;;;;;2.85;0.88;;;;;;;23.41;39.24;101560.38;5023364;28;20210;-83
2022/08/31 11:32:39;;;;;;;2.50;0.70;;;;;;;23.47;39.37;101550.69;5030124;28;20240;-82
2022/08/31 11:35:09;;;;;;;1.42;0.70;;;;;;;23.52;39.11;101554.69;5025128;28;20206;-82
2022/08/31 11:37:55;;;;;;;1.08;0.70;;;;;;;23.57;39.19;101550.66;5030016;28;20308;-81
2022/08/31 11:41:02;;;;;;;2.42;0.70;;;;;;;23.61;38.92;101557.47;5026747;28;20210;-82
2022/08/31 11:43:50;;;;;;;1.40;0.60;;;;;;;23.60;38.74;101548.47;5020500;28;20212;-82
2022/08/31 11:46:39;;;;;;;1.25;0.50;;;;;;;23.57;38.17;101545.22;5027376;28;20220;-81
2022/08/31 11:49:09;;;;;;;1.92;0.80;;;;;;;23.53;37.71;101540.09;5026296;28;20229;-81